createdAt,value
2018-01-06T00:00:17.798Z,60.60
2018-01-06T00:01:24.129Z,60.60
2018-01-06T00:02:29.567Z,60.50
2018-01-06T00:03:35.118Z,60.40
2018-01-06T00:04:41.361Z,60.10
2018-01-06T00:05:46.614Z,60.00
2018-01-06T00:06:52.276Z,59.80
2018-01-06T00:07:57.453Z,59.80
2018-01-06T00:09:02.642Z,59.80
2018-01-06T00:10:09.336Z,59.70
2018-01-06T00:11:14.652Z,59.70
2018-01-06T00:12:19.910Z,59.80
2018-01-06T00:13:25.062Z,59.80
2018-01-06T00:14:31.685Z,59.80
2018-01-06T00:15:37.335Z,59.80
2018-01-06T00:16:42.313Z,59.90
2018-01-06T00:17:47.575Z,60.00
2018-01-06T00:18:52.908Z,60.10
2018-01-06T00:19:58.001Z,60.10
2018-01-06T00:21:03.356Z,60.20
2018-01-06T00:22:08.743Z,60.30
2018-01-06T00:23:13.705Z,60.20
2018-01-06T00:24:18.701Z,60.30
2018-01-06T00:25:24.066Z,60.30
2018-01-06T00:26:29.070Z,60.40
2018-01-06T00:27:34.188Z,60.40
2018-01-06T00:28:39.054Z,60.40
2018-01-06T00:29:44.182Z,60.40
2018-01-06T00:30:49.169Z,60.40
2018-01-06T00:31:53.854Z,60.40
2018-01-06T00:32:58.542Z,60.40
2018-01-06T00:34:03.573Z,61.10
2018-01-06T00:35:08.385Z,60.50
2018-01-06T00:36:13.249Z,60.50
2018-01-06T00:37:18.064Z,60.60
2018-01-06T00:38:22.771Z,60.60
2018-01-06T00:39:27.678Z,60.70
2018-01-06T00:40:32.363Z,60.70
2018-01-06T00:41:37.210Z,60.80
2018-01-06T00:42:41.902Z,60.80
2018-01-06T00:43:46.703Z,60.70
2018-01-06T00:44:51.393Z,60.80
2018-01-06T00:45:56.103Z,60.80
2018-01-06T00:47:00.919Z,60.90
2018-01-06T00:48:05.742Z,60.90
2018-01-06T00:49:10.493Z,60.90
2018-01-06T00:50:15.312Z,61.00
2018-01-06T00:51:20.048Z,61.00
2018-01-06T00:52:24.781Z,61.00
2018-01-06T00:53:29.537Z,61.10
2018-01-06T00:54:34.306Z,61.00
2018-01-06T00:55:39.051Z,61.10
2018-01-06T00:56:43.721Z,61.00
2018-01-06T00:57:48.504Z,61.10
2018-01-06T00:58:53.214Z,61.00
2018-01-06T00:59:58.051Z,61.60
2018-01-06T01:01:02.781Z,61.00
2018-01-06T01:02:07.685Z,61.10
2018-01-06T01:03:12.418Z,61.00
2018-01-06T01:04:17.217Z,61.20
2018-01-06T01:05:22.670Z,61.00
2018-01-06T01:06:27.394Z,61.10
2018-01-06T01:07:32.150Z,61.20
2018-01-06T01:08:36.895Z,61.10
2018-01-06T01:09:41.739Z,61.10
2018-01-06T01:10:46.633Z,61.10
2018-01-06T01:11:51.508Z,61.20
2018-01-06T01:12:56.533Z,61.20
2018-01-06T01:14:01.410Z,61.20
2018-01-06T01:15:06.402Z,61.20
2018-01-06T01:16:11.168Z,61.30
2018-01-06T01:17:16.051Z,61.20
2018-01-06T01:18:20.973Z,61.30
2018-01-06T01:19:25.846Z,61.30
2018-01-06T01:20:30.600Z,61.30
2018-01-06T01:21:35.513Z,61.30
2018-01-06T01:22:40.348Z,61.30
2018-01-06T01:23:46.234Z,61.30
2018-01-06T01:24:50.954Z,61.30
2018-01-06T01:25:55.793Z,61.20
2018-01-06T01:27:00.515Z,61.30
2018-01-06T01:28:05.437Z,61.40
2018-01-06T01:29:10.241Z,61.40
2018-01-06T01:30:15.050Z,61.40
2018-01-06T01:31:19.900Z,61.30
2018-01-06T01:32:24.768Z,61.40
2018-01-06T01:33:29.519Z,61.50
2018-01-06T01:34:34.350Z,61.30
2018-01-06T01:35:39.048Z,61.30
2018-01-06T01:36:43.921Z,61.30
2018-01-06T01:37:48.902Z,61.40
2018-01-06T01:38:53.603Z,61.40
2018-01-06T01:39:58.301Z,61.30
2018-01-06T01:41:03.199Z,61.40
2018-01-06T01:42:08.804Z,61.40
2018-01-06T01:43:13.768Z,61.40
2018-01-06T01:44:18.621Z,61.40
2018-01-06T01:45:23.403Z,61.40
2018-01-06T01:46:28.049Z,61.40
2018-01-06T01:47:32.758Z,61.30
2018-01-06T01:48:37.485Z,61.40
2018-01-06T01:49:42.383Z,61.40
2018-01-06T01:50:47.261Z,61.40
2018-01-06T01:51:52.315Z,61.40
2018-01-06T01:52:57.047Z,61.40
2018-01-06T01:54:01.855Z,61.40
2018-01-06T01:55:06.581Z,61.30
2018-01-06T01:56:11.360Z,61.30
2018-01-06T01:57:16.247Z,61.30
2018-01-06T01:58:21.101Z,61.40
2018-01-06T01:59:25.858Z,61.30
2018-01-06T02:00:30.693Z,61.30
2018-01-06T02:01:35.705Z,61.30
2018-01-06T02:02:40.573Z,61.30
2018-01-06T02:03:45.377Z,61.40
2018-01-06T02:04:50.044Z,61.30
2018-01-06T02:05:54.783Z,61.40
2018-01-06T02:06:59.494Z,61.40
2018-01-06T02:08:04.349Z,61.40
2018-01-06T02:09:09.131Z,61.40
2018-01-06T02:10:13.938Z,61.40
2018-01-06T02:11:18.767Z,61.40
2018-01-06T02:12:23.653Z,61.40
2018-01-06T02:13:28.349Z,61.40
2018-01-06T02:14:33.218Z,61.40
2018-01-06T02:15:38.107Z,61.40
2018-01-06T02:16:42.970Z,61.40
2018-01-06T02:17:47.705Z,61.40
2018-01-06T02:18:52.466Z,61.40
2018-01-06T02:19:57.375Z,61.40
2018-01-06T02:21:02.105Z,61.40
2018-01-06T02:22:06.972Z,61.40
2018-01-06T02:23:11.754Z,61.40
2018-01-06T02:24:16.621Z,61.40
2018-01-06T02:25:21.337Z,61.50
2018-01-06T02:26:26.044Z,61.40
2018-01-06T02:27:30.786Z,61.40
2018-01-06T02:28:35.536Z,61.40
2018-01-06T02:29:40.357Z,61.40
2018-01-06T02:30:45.206Z,61.40
2018-01-06T02:31:50.089Z,61.40
2018-01-06T02:32:54.951Z,61.40
2018-01-06T02:33:59.719Z,61.40
2018-01-06T02:35:04.499Z,61.40
2018-01-06T02:36:09.403Z,61.40
2018-01-06T02:37:14.148Z,61.40
2018-01-06T02:38:18.894Z,61.40
2018-01-06T02:39:23.871Z,61.40
2018-01-06T02:40:28.839Z,61.40
2018-01-06T02:41:33.748Z,61.50
2018-01-06T02:42:38.559Z,61.40
2018-01-06T02:43:43.329Z,61.50
2018-01-06T02:44:48.195Z,61.40
2018-01-06T02:45:52.884Z,61.40
2018-01-06T02:46:57.629Z,61.40
2018-01-06T02:48:02.368Z,61.50
2018-01-06T02:49:07.254Z,61.40
2018-01-06T02:50:12.088Z,61.50
2018-01-06T02:51:16.979Z,61.50
2018-01-06T02:52:21.694Z,61.50
2018-01-06T02:53:26.380Z,61.50
2018-01-06T02:54:31.033Z,61.50
2018-01-06T02:55:35.724Z,61.50
2018-01-06T02:56:40.526Z,61.50
2018-01-06T02:57:45.275Z,61.50
2018-01-06T02:58:50.829Z,61.40
2018-01-06T02:59:55.696Z,61.50
2018-01-06T03:01:00.489Z,61.50
2018-01-06T03:02:05.293Z,61.40
2018-01-06T03:03:10.110Z,61.50
2018-01-06T03:04:14.957Z,61.40
2018-01-06T03:05:19.811Z,61.50
2018-01-06T03:06:24.555Z,61.40
2018-01-06T03:07:29.327Z,61.40
2018-01-06T03:08:34.150Z,61.40
2018-01-06T03:09:38.953Z,61.40
2018-01-06T03:10:43.657Z,61.50
2018-01-06T03:11:48.518Z,61.50
2018-01-06T03:12:53.270Z,61.50
2018-01-06T03:13:58.147Z,61.40
2018-01-06T03:15:02.983Z,61.30
2018-01-06T03:16:07.620Z,61.40
2018-01-06T03:17:13.359Z,61.30
2018-01-06T03:18:18.325Z,61.40
2018-01-06T03:19:23.046Z,61.40
2018-01-06T03:20:27.774Z,61.40
2018-01-06T03:21:32.616Z,61.40
2018-01-06T03:22:37.462Z,61.40
2018-01-06T03:23:42.223Z,61.30
2018-01-06T03:24:46.996Z,61.40
2018-01-06T03:25:51.860Z,61.40
2018-01-06T03:26:56.600Z,61.30
2018-01-06T03:28:01.292Z,61.30
2018-01-06T03:29:05.940Z,61.30
2018-01-06T03:30:10.803Z,61.40
2018-01-06T03:31:15.584Z,61.40
2018-01-06T03:32:20.457Z,61.40
2018-01-06T03:33:25.130Z,61.30
2018-01-06T03:34:29.896Z,61.40
2018-01-06T03:35:34.672Z,61.30
2018-01-06T03:36:39.764Z,61.30
2018-01-06T03:37:44.598Z,61.40
2018-01-06T03:38:49.412Z,61.30
2018-01-06T03:39:54.141Z,61.40
2018-01-06T03:40:58.849Z,61.40
2018-01-06T03:42:03.622Z,61.40
2018-01-06T03:43:08.523Z,61.30
2018-01-06T03:44:13.339Z,61.40
2018-01-06T03:45:18.112Z,61.30
2018-01-06T03:46:22.921Z,61.30
2018-01-06T03:47:27.752Z,61.40
2018-01-06T03:48:32.494Z,61.40
2018-01-06T03:49:37.244Z,61.30
2018-01-06T03:50:42.071Z,62.00
2018-01-06T03:51:46.808Z,61.30
2018-01-06T03:52:51.691Z,61.30
2018-01-06T03:53:56.496Z,61.40
2018-01-06T03:55:01.234Z,61.40
2018-01-06T03:56:05.986Z,61.40
2018-01-06T03:57:10.716Z,61.40
2018-01-06T03:58:15.512Z,61.50
2018-01-06T03:59:20.433Z,61.40
2018-01-06T04:00:25.197Z,61.40
2018-01-06T04:01:29.934Z,61.40
2018-01-06T04:02:34.628Z,61.30
2018-01-06T04:03:39.382Z,61.40
2018-01-06T04:04:44.087Z,61.30
2018-01-06T04:05:48.915Z,61.30
2018-01-06T04:06:53.726Z,61.30
2018-01-06T04:07:58.545Z,61.30
2018-01-06T04:09:03.281Z,61.30
2018-01-06T04:10:07.998Z,61.30
2018-01-06T04:11:12.744Z,61.30
2018-01-06T04:12:17.583Z,61.30
2018-01-06T04:13:22.437Z,61.30
2018-01-06T04:14:27.296Z,61.20
2018-01-06T04:15:32.138Z,61.20
2018-01-06T04:16:36.809Z,61.20
2018-01-06T04:17:41.631Z,61.20
2018-01-06T04:18:46.481Z,61.20
2018-01-06T04:19:51.235Z,61.20
2018-01-06T04:20:56.123Z,61.30
2018-01-06T04:22:00.934Z,61.20
2018-01-06T04:23:05.734Z,61.20
2018-01-06T04:24:10.551Z,61.20
2018-01-06T04:25:15.261Z,61.20
2018-01-06T04:26:19.984Z,61.20
2018-01-06T04:27:24.714Z,61.20
2018-01-06T04:28:29.536Z,61.20
2018-01-06T04:29:34.344Z,61.20
2018-01-06T04:30:39.041Z,61.20
2018-01-06T04:31:43.725Z,61.20
2018-01-06T04:32:48.549Z,61.20
2018-01-06T04:33:54.408Z,61.20
2018-01-06T04:34:59.233Z,61.20
2018-01-06T04:36:03.930Z,61.20
2018-01-06T04:37:08.631Z,61.20
2018-01-06T04:38:13.410Z,61.20
2018-01-06T04:39:18.260Z,61.20
2018-01-06T04:40:22.958Z,61.20
2018-01-06T04:41:27.789Z,61.20
2018-01-06T04:42:32.574Z,61.30
2018-01-06T04:43:37.284Z,61.30
2018-01-06T04:44:42.125Z,61.20
2018-01-06T04:45:46.964Z,61.20
2018-01-06T04:46:51.654Z,61.20
2018-01-06T04:47:56.410Z,61.20
2018-01-06T04:49:01.062Z,61.20
2018-01-06T04:50:05.758Z,61.20
2018-01-06T04:51:10.450Z,61.20
2018-01-06T04:52:15.496Z,61.20
2018-01-06T04:53:20.597Z,61.20
2018-01-06T04:54:25.318Z,61.20
2018-01-06T04:55:30.333Z,61.20
2018-01-06T04:56:35.144Z,61.10
2018-01-06T04:57:39.943Z,61.20
2018-01-06T04:58:44.942Z,61.20
2018-01-06T04:59:49.697Z,61.10
2018-01-06T05:00:54.533Z,61.10
2018-01-06T05:01:59.550Z,61.10
2018-01-06T05:03:04.296Z,61.10
2018-01-06T05:04:09.080Z,61.10
2018-01-06T05:05:13.908Z,61.10
2018-01-06T05:06:18.625Z,61.20
2018-01-06T05:07:23.494Z,61.10
2018-01-06T05:08:28.264Z,61.10
2018-01-06T05:09:33.065Z,61.10
2018-01-06T05:10:37.895Z,61.10
2018-01-06T05:11:42.837Z,61.10
2018-01-06T05:12:47.674Z,61.10
2018-01-06T05:13:52.438Z,61.10
2018-01-06T05:14:57.201Z,61.10
2018-01-06T05:16:01.897Z,61.00
2018-01-06T05:17:06.819Z,61.00
2018-01-06T05:18:11.643Z,61.10
2018-01-06T05:19:16.479Z,61.00
2018-01-06T05:20:21.200Z,61.00
2018-01-06T05:21:25.895Z,61.00
2018-01-06T05:22:30.642Z,61.00
2018-01-06T05:23:35.361Z,61.00
2018-01-06T05:24:40.090Z,61.00
2018-01-06T05:25:44.838Z,61.00
2018-01-06T05:26:49.462Z,61.00
2018-01-06T05:27:54.533Z,61.00
2018-01-06T05:28:59.387Z,61.00
2018-01-06T05:30:04.361Z,61.00
2018-01-06T05:31:09.112Z,60.90
2018-01-06T05:32:13.901Z,60.90
2018-01-06T05:33:18.852Z,61.00
2018-01-06T05:34:23.654Z,61.00
2018-01-06T05:35:28.549Z,61.00
2018-01-06T05:36:33.415Z,61.00
2018-01-06T05:37:38.113Z,61.00
2018-01-06T05:38:42.802Z,61.00
2018-01-06T05:39:47.576Z,60.90
2018-01-06T05:40:52.290Z,60.90
2018-01-06T05:41:57.114Z,60.90
2018-01-06T05:43:01.951Z,60.90
2018-01-06T05:44:06.798Z,60.90
2018-01-06T05:45:11.509Z,60.90
2018-01-06T05:46:16.394Z,60.90
2018-01-06T05:47:21.256Z,60.90
2018-01-06T05:48:26.091Z,60.90
2018-01-06T05:49:30.928Z,60.90
2018-01-06T05:50:36.005Z,60.90
2018-01-06T05:51:40.902Z,60.90
2018-01-06T05:52:45.809Z,60.90
2018-01-06T05:53:50.574Z,60.90
2018-01-06T05:54:55.296Z,60.90
2018-01-06T05:56:00.118Z,60.90
2018-01-06T05:57:04.987Z,60.90
2018-01-06T05:58:10.624Z,60.90
2018-01-06T05:59:15.339Z,60.90
2018-01-06T06:00:20.128Z,60.90
2018-01-06T06:01:24.998Z,60.90
2018-01-06T06:02:29.783Z,60.90
2018-01-06T06:03:34.601Z,60.90
2018-01-06T06:04:39.471Z,60.90
2018-01-06T06:05:44.289Z,60.90
2018-01-06T06:06:49.239Z,60.90
2018-01-06T06:07:54.090Z,60.90
2018-01-06T06:08:59.167Z,60.80
2018-01-06T06:10:04.115Z,60.80
2018-01-06T06:11:09.045Z,60.80
2018-01-06T06:12:13.955Z,60.80
2018-01-06T06:13:18.751Z,60.80
2018-01-06T06:14:23.456Z,60.80
2018-01-06T06:15:28.380Z,60.80
2018-01-06T06:16:33.375Z,60.80
2018-01-06T06:17:38.261Z,60.80
2018-01-06T06:18:43.067Z,60.80
2018-01-06T06:19:48.016Z,60.90
2018-01-06T06:20:52.976Z,60.80
2018-01-06T06:21:57.804Z,60.80
2018-01-06T06:23:02.552Z,60.80
2018-01-06T06:24:07.478Z,60.80
2018-01-06T06:25:12.202Z,60.80
2018-01-06T06:26:16.914Z,60.80
2018-01-06T06:27:22.909Z,60.80
2018-01-06T06:28:27.762Z,60.80
2018-01-06T06:29:32.686Z,60.70
2018-01-06T06:30:37.431Z,60.70
2018-01-06T06:31:42.285Z,60.70
2018-01-06T06:32:47.011Z,60.80
2018-01-06T06:33:51.729Z,60.70
2018-01-06T06:34:56.560Z,60.70
2018-01-06T06:36:01.588Z,60.70
2018-01-06T06:37:06.462Z,60.70
2018-01-06T06:38:11.283Z,60.80
2018-01-06T06:39:17.126Z,60.80
2018-01-06T06:40:22.648Z,60.80
2018-01-06T06:41:27.527Z,60.80
2018-01-06T06:42:32.299Z,60.70
2018-01-06T06:43:37.282Z,60.80
2018-01-06T06:44:42.168Z,60.70
2018-01-06T06:45:47.378Z,60.70
2018-01-06T06:46:52.284Z,60.80
2018-01-06T06:47:57.108Z,60.80
2018-01-06T06:49:01.859Z,60.80
2018-01-06T06:50:06.702Z,61.10
2018-01-06T06:51:11.465Z,61.10
2018-01-06T06:52:16.317Z,59.20
2018-01-06T06:53:21.103Z,55.40
2018-01-06T06:54:25.982Z,57.50
2018-01-06T06:55:30.928Z,57.00
2018-01-06T06:56:35.866Z,56.60
2018-01-06T06:57:40.666Z,56.60
2018-01-06T06:58:45.558Z,56.50
2018-01-06T06:59:50.468Z,56.40
2018-01-06T07:00:55.350Z,56.30
2018-01-06T07:02:00.260Z,56.30
2018-01-06T07:03:05.225Z,56.40
2018-01-06T07:04:10.856Z,56.40
2018-01-06T07:05:15.555Z,57.00
2018-01-06T07:06:20.502Z,56.30
2018-01-06T07:07:25.330Z,56.40
2018-01-06T07:08:30.239Z,56.40
2018-01-06T07:09:35.153Z,56.50
2018-01-06T07:10:40.084Z,56.60
2018-01-06T07:11:45.178Z,56.70
2018-01-06T07:12:50.342Z,56.80
2018-01-06T07:13:55.101Z,56.80
2018-01-06T07:14:59.984Z,56.70
2018-01-06T07:16:04.704Z,56.70
2018-01-06T07:17:09.552Z,56.80
2018-01-06T07:18:14.370Z,56.80
2018-01-06T07:19:19.393Z,56.60
2018-01-06T07:20:24.209Z,56.60
2018-01-06T07:21:29.086Z,56.60
2018-01-06T07:22:34.806Z,56.60
2018-01-06T07:23:39.714Z,56.60
2018-01-06T07:24:44.710Z,56.60
2018-01-06T07:25:49.639Z,56.60
2018-01-06T07:26:54.793Z,56.60
2018-01-06T07:27:59.595Z,56.50
2018-01-06T07:29:04.375Z,56.50
2018-01-06T07:30:09.115Z,56.40
2018-01-06T07:31:13.963Z,56.40
2018-01-06T07:32:18.760Z,56.50
2018-01-06T07:33:23.668Z,56.50
2018-01-06T07:34:28.687Z,56.50
2018-01-06T07:35:33.658Z,56.40
2018-01-06T07:36:38.496Z,56.40
2018-01-06T07:37:43.704Z,56.50
2018-01-06T07:38:48.452Z,56.40
2018-01-06T07:39:53.258Z,56.50
2018-01-06T07:40:58.379Z,56.60
2018-01-06T07:42:03.085Z,56.70
2018-01-06T07:43:07.859Z,56.70
2018-01-06T07:44:12.619Z,56.80
2018-01-06T07:45:17.545Z,56.80
2018-01-06T07:46:22.538Z,56.90
2018-01-06T07:47:27.338Z,57.00
2018-01-06T07:48:32.052Z,56.90
2018-01-06T07:49:36.895Z,57.00
2018-01-06T07:50:41.632Z,57.10
2018-01-06T07:51:46.382Z,57.10
2018-01-06T07:52:51.102Z,57.20
2018-01-06T07:53:56.001Z,57.30
2018-01-06T07:55:00.895Z,57.30
2018-01-06T07:56:05.607Z,57.50
2018-01-06T07:57:10.454Z,57.40
2018-01-06T07:58:15.308Z,57.40
2018-01-06T07:59:21.077Z,57.50
2018-01-06T08:00:25.754Z,57.60
2018-01-06T08:01:30.477Z,57.60
2018-01-06T08:02:35.149Z,57.50
2018-01-06T08:03:40.137Z,57.60
2018-01-06T08:04:45.771Z,57.70
2018-01-06T08:05:50.626Z,57.70
2018-01-06T08:06:55.917Z,57.70
2018-01-06T08:08:00.837Z,57.70
2018-01-06T08:09:05.544Z,57.70
2018-01-06T08:10:10.229Z,57.90
2018-01-06T08:11:15.072Z,57.90
2018-01-06T08:12:20.058Z,58.00
2018-01-06T08:13:24.923Z,58.00
2018-01-06T08:14:29.617Z,58.30
2018-01-06T08:15:34.476Z,58.30
2018-01-06T08:16:39.386Z,58.40
2018-01-06T08:17:45.044Z,58.40
2018-01-06T08:18:49.876Z,58.50
2018-01-06T08:19:55.149Z,58.60
2018-01-06T08:20:59.904Z,58.60
2018-01-06T08:22:04.807Z,58.70
2018-01-06T08:23:09.949Z,58.80
2018-01-06T08:24:14.684Z,58.80
2018-01-06T08:25:19.416Z,59.00
2018-01-06T08:26:24.320Z,59.00
2018-01-06T08:27:29.055Z,59.00
2018-01-06T08:28:33.893Z,59.10
2018-01-06T08:29:38.624Z,59.20
2018-01-06T08:30:43.528Z,59.30
2018-01-06T08:31:48.457Z,59.40
2018-01-06T08:32:53.235Z,59.40
2018-01-06T08:33:57.934Z,59.50
2018-01-06T08:35:02.719Z,59.40
2018-01-06T08:36:09.230Z,59.00
2018-01-06T08:37:14.165Z,58.30
2018-01-06T08:38:18.918Z,58.20
2018-01-06T08:39:23.832Z,58.30
2018-01-06T08:40:28.652Z,58.30
2018-01-06T08:41:33.392Z,58.40
2018-01-06T08:42:38.153Z,58.30
2018-01-06T08:43:43.036Z,58.50
2018-01-06T08:44:47.906Z,58.50
2018-01-06T08:45:52.812Z,58.60
2018-01-06T08:46:57.595Z,58.60
2018-01-06T08:48:02.534Z,58.70
2018-01-06T08:49:07.261Z,58.70
2018-01-06T08:50:12.171Z,58.80
2018-01-06T08:51:17.188Z,58.90
2018-01-06T08:52:22.108Z,58.90
2018-01-06T08:53:26.974Z,59.00
2018-01-06T08:54:32.546Z,59.10
2018-01-06T08:55:37.312Z,59.20
2018-01-06T08:56:42.034Z,59.40
2018-01-06T08:57:46.893Z,59.40
2018-01-06T08:58:51.610Z,59.50
2018-01-06T08:59:56.475Z,59.50
2018-01-06T09:01:02.008Z,59.70
2018-01-06T09:02:06.896Z,59.90
2018-01-06T09:03:11.740Z,59.90
2018-01-06T09:04:16.629Z,60.00
2018-01-06T09:05:21.494Z,60.00
2018-01-06T09:06:26.483Z,60.00
2018-01-06T09:07:31.251Z,60.20
2018-01-06T09:08:36.077Z,60.30
2018-01-06T09:09:40.963Z,60.30
2018-01-06T09:10:46.280Z,60.30
2018-01-06T09:11:51.102Z,60.40
2018-01-06T09:12:56.787Z,60.40
2018-01-06T09:14:01.694Z,60.40
2018-01-06T09:15:06.455Z,60.40
2018-01-06T09:16:11.232Z,60.50
2018-01-06T09:17:16.204Z,60.40
2018-01-06T09:18:20.959Z,60.30
2018-01-06T09:19:25.692Z,60.30
2018-01-06T09:20:30.445Z,60.10
2018-01-06T09:21:35.184Z,60.10
2018-01-06T09:22:40.055Z,60.00
2018-01-06T09:23:44.912Z,60.10
2018-01-06T09:24:49.709Z,60.10
2018-01-06T09:25:54.490Z,60.10
2018-01-06T09:26:59.519Z,60.20
2018-01-06T09:28:04.351Z,60.00
2018-01-06T09:29:09.216Z,60.10
2018-01-06T09:30:13.940Z,60.10
2018-01-06T09:31:19.477Z,60.10
2018-01-06T09:32:24.678Z,60.00
2018-01-06T09:33:29.402Z,60.00
2018-01-06T09:34:34.089Z,60.00
2018-01-06T09:35:38.860Z,60.00
2018-01-06T09:36:43.759Z,60.00
2018-01-06T09:37:48.483Z,60.00
2018-01-06T09:38:53.164Z,60.00
2018-01-06T09:39:58.061Z,60.00
2018-01-06T09:41:03.089Z,60.00
2018-01-06T09:42:07.865Z,60.00
2018-01-06T09:43:12.740Z,60.00
2018-01-06T09:44:17.519Z,60.00
2018-01-06T09:45:22.289Z,60.00
2018-01-06T09:46:27.225Z,60.10
2018-01-06T09:47:31.968Z,60.00
2018-01-06T09:48:36.878Z,60.00
2018-01-06T09:49:41.615Z,60.00
2018-01-06T09:50:46.932Z,60.00
2018-01-06T09:51:51.810Z,60.00
2018-01-06T09:52:56.604Z,60.00
2018-01-06T09:54:01.390Z,60.00
2018-01-06T09:55:06.258Z,60.00
2018-01-06T09:56:11.271Z,60.00
2018-01-06T09:57:16.279Z,60.00
2018-01-06T09:58:21.298Z,60.00
2018-01-06T09:59:26.221Z,60.00
2018-01-06T10:00:31.067Z,60.00
2018-01-06T10:01:37.281Z,60.00
2018-01-06T10:02:42.251Z,60.00
2018-01-06T10:03:47.093Z,59.90
2018-01-06T10:04:52.046Z,59.90
2018-01-06T10:05:57.456Z,59.90
2018-01-06T10:07:02.537Z,59.90
2018-01-06T10:08:09.107Z,60.00
2018-01-06T10:09:14.002Z,60.00
2018-01-06T10:10:18.777Z,60.00
2018-01-06T10:11:23.642Z,60.00
2018-01-06T10:12:28.596Z,60.00
2018-01-06T10:13:33.499Z,60.00
2018-01-06T10:14:38.365Z,60.00
2018-01-06T10:15:43.290Z,60.00
2018-01-06T10:16:48.249Z,59.90
2018-01-06T10:17:53.719Z,59.90
2018-01-06T10:18:58.797Z,59.90
2018-01-06T10:20:03.514Z,60.00
2018-01-06T10:21:10.821Z,60.00
2018-01-06T10:22:15.721Z,60.00
2018-01-06T10:23:20.642Z,60.00
2018-01-06T10:24:25.503Z,60.00
2018-01-06T10:25:30.628Z,60.00
2018-01-06T10:26:35.680Z,60.00
2018-01-06T10:27:40.629Z,60.00
2018-01-06T10:28:45.386Z,60.10
2018-01-06T10:29:50.296Z,60.20
2018-01-06T10:30:55.117Z,60.20
2018-01-06T10:32:00.157Z,60.20
2018-01-06T10:33:05.122Z,60.10
2018-01-06T10:34:09.863Z,59.60
2018-01-06T10:35:14.648Z,59.70
2018-01-06T10:36:19.447Z,59.50
2018-01-06T10:37:24.149Z,59.30
2018-01-06T10:38:29.041Z,59.20
2018-01-06T10:39:33.782Z,59.20
2018-01-06T10:40:38.601Z,59.20
2018-01-06T10:41:43.474Z,59.20
2018-01-06T10:42:48.552Z,59.30
2018-01-06T10:43:53.494Z,59.30
2018-01-06T10:44:59.117Z,59.50
2018-01-06T10:46:03.847Z,59.50
2018-01-06T10:47:08.636Z,59.80
2018-01-06T10:48:13.490Z,60.00
2018-01-06T10:49:18.276Z,61.00
2018-01-06T10:50:22.977Z,60.40
2018-01-06T10:51:27.845Z,60.50
2018-01-06T10:52:32.765Z,61.00
2018-01-06T10:53:38.053Z,61.00
2018-01-06T10:54:42.977Z,61.00
2018-01-06T10:55:47.971Z,61.00
2018-01-06T10:56:52.879Z,61.10
2018-01-06T10:57:57.699Z,61.10
2018-01-06T10:59:02.713Z,61.10
2018-01-06T11:00:07.927Z,61.00
2018-01-06T11:01:12.993Z,61.00
2018-01-06T11:02:17.798Z,61.10
2018-01-06T11:03:22.734Z,61.30
2018-01-06T11:04:27.505Z,61.40
2018-01-06T11:05:32.271Z,61.60
2018-01-06T11:06:37.224Z,62.00
2018-01-06T11:07:42.078Z,62.20
2018-01-06T11:08:47.048Z,62.50
2018-01-06T11:09:52.074Z,62.70
2018-01-06T11:10:56.996Z,63.00
2018-01-06T11:12:01.904Z,63.10
2018-01-06T11:13:06.825Z,63.50
2018-01-06T11:14:11.572Z,63.80
2018-01-06T11:15:16.788Z,63.90
2018-01-06T11:16:21.678Z,64.40
2018-01-06T11:17:26.657Z,64.80
2018-01-06T11:18:31.534Z,65.00
2018-01-06T11:19:36.341Z,65.30
2018-01-06T11:20:41.125Z,65.60
2018-01-06T11:21:45.983Z,65.70
2018-01-06T11:22:50.797Z,65.90
2018-01-06T11:23:55.506Z,66.00
2018-01-06T11:25:00.292Z,65.90
2018-01-06T11:26:05.037Z,65.60
2018-01-06T11:27:10.221Z,65.80
2018-01-06T11:28:15.243Z,65.80
2018-01-06T11:29:20.373Z,65.80
2018-01-06T11:30:25.295Z,65.80
2018-01-06T11:31:30.042Z,65.80
2018-01-06T11:32:34.818Z,65.90
2018-01-06T11:33:39.598Z,66.50
2018-01-06T11:34:44.344Z,65.80
2018-01-06T11:35:49.173Z,65.70
2018-01-06T11:36:53.891Z,65.60
2018-01-06T11:37:58.798Z,65.70
2018-01-06T11:39:03.541Z,65.60
2018-01-06T11:40:08.475Z,65.50
2018-01-06T11:41:13.362Z,65.60
2018-01-06T11:42:18.184Z,65.60
2018-01-06T11:43:23.049Z,65.60
2018-01-06T11:44:27.914Z,65.60
2018-01-06T11:45:32.849Z,65.40
2018-01-06T11:46:37.895Z,59.90
2018-01-06T11:47:42.726Z,60.10
2018-01-06T11:48:47.530Z,57.30
2018-01-06T11:49:52.566Z,55.80
2018-01-06T11:50:57.392Z,56.40
2018-01-06T11:52:02.457Z,54.50
2018-01-06T11:53:07.419Z,55.10
2018-01-06T11:54:12.280Z,54.00
2018-01-06T11:55:17.691Z,54.80
2018-01-06T11:56:22.599Z,53.90
2018-01-06T11:57:27.464Z,52.50
2018-01-06T11:58:32.391Z,52.80
2018-01-06T11:59:37.750Z,53.10
2018-01-06T12:00:43.240Z,54.20
2018-01-06T12:01:48.129Z,55.20
2018-01-06T12:02:52.880Z,55.70
2018-01-06T12:03:57.823Z,55.80
2018-01-06T12:05:02.885Z,55.80
2018-01-06T12:06:07.659Z,55.90
2018-01-06T12:07:12.531Z,56.00
2018-01-06T12:08:17.408Z,56.20
2018-01-06T12:09:22.293Z,56.10
2018-01-06T12:10:27.148Z,56.20
2018-01-06T12:11:32.071Z,56.30
2018-01-06T12:12:36.952Z,56.40
2018-01-06T12:13:41.799Z,56.50
2018-01-06T12:14:46.523Z,56.70
2018-01-06T12:15:51.302Z,56.90
2018-01-06T12:16:56.131Z,56.90
2018-01-06T12:18:00.974Z,57.30
2018-01-06T12:19:05.888Z,57.70
2018-01-06T12:20:10.816Z,58.20
2018-01-06T12:21:15.725Z,58.40
2018-01-06T12:22:20.437Z,59.00
2018-01-06T12:23:25.310Z,59.40
2018-01-06T12:24:30.091Z,59.70
2018-01-06T12:25:36.317Z,59.40
2018-01-06T12:26:41.300Z,59.50
2018-01-06T12:27:46.133Z,59.60
2018-01-06T12:28:50.908Z,59.70
2018-01-06T12:29:55.654Z,59.50
2018-01-06T12:31:00.347Z,59.10
2018-01-06T12:32:05.319Z,59.20
2018-01-06T12:33:10.223Z,59.30
2018-01-06T12:34:14.961Z,59.40
2018-01-06T12:35:19.909Z,59.50
2018-01-06T12:36:24.652Z,59.50
2018-01-06T12:37:29.317Z,59.40
2018-01-06T12:38:34.168Z,59.90
2018-01-06T12:39:38.952Z,60.00
2018-01-06T12:40:43.766Z,60.00
2018-01-06T12:41:48.535Z,60.00
2018-01-06T12:42:53.447Z,60.10
2018-01-06T12:43:58.202Z,60.10
2018-01-06T12:45:03.004Z,60.20
2018-01-06T12:46:07.941Z,60.10
2018-01-06T12:47:12.715Z,60.10
2018-01-06T12:48:17.668Z,60.10
2018-01-06T12:49:22.592Z,60.20
2018-01-06T12:50:27.310Z,60.10
2018-01-06T12:51:32.237Z,60.20
2018-01-06T12:52:37.058Z,60.20
2018-01-06T12:53:41.750Z,60.00
2018-01-06T12:54:47.055Z,60.00
2018-01-06T12:55:51.827Z,60.00
2018-01-06T12:56:56.771Z,60.10
2018-01-06T12:58:02.341Z,60.00
2018-01-06T12:59:07.076Z,60.00
2018-01-06T13:00:11.771Z,60.00
2018-01-06T13:01:16.619Z,60.10
2018-01-06T13:02:21.363Z,60.10
2018-01-06T13:03:26.080Z,60.10
2018-01-06T13:04:30.903Z,60.20
2018-01-06T13:05:35.731Z,60.10
2018-01-06T13:06:40.537Z,60.20
2018-01-06T13:07:45.211Z,60.20
2018-01-06T13:08:49.985Z,60.20
2018-01-06T13:09:54.701Z,61.00
2018-01-06T13:10:59.345Z,60.30
2018-01-06T13:12:04.359Z,60.30
2018-01-06T13:13:09.354Z,60.20
2018-01-06T13:14:14.217Z,60.20
2018-01-06T13:15:18.960Z,60.30
2018-01-06T13:16:23.768Z,60.40
2018-01-06T13:17:28.526Z,60.30
2018-01-06T13:18:33.218Z,60.50
2018-01-06T13:19:37.958Z,60.60
2018-01-06T13:20:42.651Z,60.60
2018-01-06T13:21:47.601Z,60.60
2018-01-06T13:22:52.569Z,60.60
2018-01-06T13:23:57.428Z,60.70
2018-01-06T13:25:02.234Z,60.70
2018-01-06T13:26:07.095Z,60.60
2018-01-06T13:27:11.885Z,60.70
2018-01-06T13:28:16.679Z,60.70
2018-01-06T13:29:21.677Z,60.70
2018-01-06T13:30:26.461Z,60.80
2018-01-06T13:31:31.266Z,60.70
2018-01-06T13:32:36.051Z,60.80
2018-01-06T13:33:42.400Z,60.80
2018-01-06T13:34:47.216Z,61.00
2018-01-06T13:35:52.303Z,61.20
2018-01-06T13:36:57.126Z,61.20
2018-01-06T13:38:02.027Z,61.10
2018-01-06T13:39:06.854Z,61.10
2018-01-06T13:40:12.004Z,61.10
2018-01-06T13:41:16.912Z,61.20
2018-01-06T13:42:21.748Z,61.20
2018-01-06T13:43:26.497Z,61.20
2018-01-06T13:44:31.293Z,61.20
2018-01-06T13:45:36.167Z,61.20
2018-01-06T13:46:41.087Z,61.20
2018-01-06T13:47:46.289Z,61.20
2018-01-06T13:48:51.302Z,61.30
2018-01-06T13:49:56.100Z,61.30
2018-01-06T13:51:00.844Z,61.30
2018-01-06T13:52:05.905Z,61.40
2018-01-06T13:53:11.281Z,61.40
2018-01-06T13:54:19.126Z,61.20
2018-01-06T13:55:23.913Z,61.20